Time;durP1;ratioP1;P1;durP2;ratioP2;P2;SDS_P1;SDS_P2;PMS_P1;PMS_P2;Temp;Humidity;BMP_temperature;BMP_pressure;BME280_temperature;BME280_humidity;BME280_pressure;Samples;Min_cycle;Max_cycle;Signal;HPM_P1;HPM_P2
2022/01/10 00:01:51;;;;;;;24.52;7.40;;;2.10;99.90;;;;;;4849673;29;20041;-96
2022/01/10 00:04:17;;;;;;;28.80;7.45;;;2.20;99.90;;;;;;4860440;29;20041;-96
2022/01/10 00:06:45;;;;;;;22.45;7.70;;;2.30;99.90;;;;;;4879090;29;20110;-96
2022/01/10 00:09:14;;;;;;;24.65;7.40;;;2.10;99.90;;;;;;4878355;29;20053;-96
2022/01/10 00:11:42;;;;;;;23.33;7.55;;;2.10;99.90;;;;;;4834082;29;20553;-96
2022/01/10 00:14:08;;;;;;;27.77;8.07;;;2.00;99.90;;;;;;4847207;29;20053;-96
2022/01/10 00:16:37;;;;;;;28.30;8.38;;;2.10;99.90;;;;;;4877678;29;20067;-96
2022/01/10 00:19:03;;;;;;;34.38;9.00;;;2.00;99.90;;;;;;4857674;29;20078;-96
2022/01/10 00:21:29;;;;;;;27.00;8.40;;;2.00;99.90;;;;;;4872363;29;20046;-96
2022/01/10 00:23:55;;;;;;;26.33;8.10;;;1.90;99.90;;;;;;4872451;29;20045;-96
2022/01/10 00:26:21;;;;;;;23.65;8.48;;;2.00;99.90;;;;;;4861109;29;20073;-96
2022/01/10 00:28:47;;;;;;;39.05;9.13;;;1.90;99.90;;;;;;4859567;29;20049;-96
2022/01/10 00:31:12;;;;;;;29.23;8.07;;;1.80;99.90;;;;;;4860835;29;20074;-96
2022/01/10 00:33:38;;;;;;;26.77;10.15;;;1.70;99.90;;;;;;4860741;29;20037;-96
2022/01/10 00:36:05;;;;;;;34.58;10.10;;;1.70;99.90;;;;;;4847431;29;20061;-95
2022/01/10 00:38:36;;;;;;;31.77;9.23;;;1.70;99.90;;;;;;4864240;29;20074;-96
2022/01/10 00:41:05;;;;;;;31.20;9.90;;;1.60;99.90;;;;;;4867166;29;20049;-96
2022/01/10 00:43:33;;;;;;;30.02;9.15;;;1.60;99.90;;;;;;4865951;29;20064;-96
2022/01/10 00:46:04;;;;;;;29.55;9.43;;;1.60;99.90;;;;;;4853453;29;20069;-96
2022/01/10 00:48:33;;;;;;;25.95;9.25;;;1.60;99.90;;;;;;4869181;29;20089;-96
2022/01/10 00:51:04;;;;;;;24.33;8.35;;;1.50;99.90;;;;;;4887490;29;20041;-96
2022/01/10 00:53:33;;;;;;;24.63;7.65;;;1.40;99.90;;;;;;4879574;29;20480;-96
2022/01/10 00:55:59;;;;;;;33.47;9.27;;;1.40;99.90;;;;;;4878496;29;20052;-96
2022/01/10 00:58:25;;;;;;;31.92;9.98;;;1.40;99.90;;;;;;4859458;29;20085;-96
2022/01/10 01:00:53;;;;;;;27.15;8.95;;;1.40;99.90;;;;;;4879559;29;20057;-96
2022/01/10 01:03:19;;;;;;;23.25;8.45;;;1.30;99.90;;;;;;4862267;29;20061;-96
2022/01/10 01:05:45;;;;;;;22.85;8.27;;;1.30;99.90;;;;;;4862028;29;20067;-96
2022/01/10 01:08:14;;;;;;;27.10;8.73;;;1.30;99.90;;;;;;4863935;29;20041;-96
2022/01/10 01:24:07;;;;;;;19.23;7.88;;;1.10;99.90;;;;;;4856581;29;20770;-96
2022/01/10 01:26:41;;;;;;;21.90;7.93;;;1.10;99.90;;;;;;4858734;29;20052;-96
2022/01/10 01:29:10;;;;;;;20.20;7.15;;;1.00;99.90;;;;;;4854364;29;20124;-96
2022/01/10 01:31:36;;;;;;;20.10;8.07;;;1.00;99.90;;;;;;4848711;29;20053;-96
2022/01/10 01:34:03;;;;;;;20.50;8.07;;;0.90;99.90;;;;;;4849036;29;20050;-96
2022/01/10 01:36:30;;;;;;;21.35;9.18;;;0.90;99.90;;;;;;4849258;29;20702;-96
2022/01/10 01:38:57;;;;;;;73.38;9.70;;;0.80;99.90;;;;;;4847910;29;20045;-96
2022/01/10 01:43:55;;;;;;;108.53;9.60;;;0.70;99.90;;;;;;4862228;29;20539;-96
2022/01/10 01:46:21;;;;;;;172.43;10.32;;;0.70;99.90;;;;;;4841197;29;20132;-96
2022/01/10 01:48:48;;;;;;;20.98;8.10;;;0.60;99.90;;;;;;4848894;29;20095;-96
2022/01/10 01:51:15;;;;;;;22.58;9.02;;;0.60;99.90;;;;;;4847174;29;20449;-96
2022/01/10 01:53:41;;;;;;;27.33;9.57;;;0.50;99.90;;;;;;4845677;29;20050;-96
2022/01/10 01:56:09;;;;;;;32.38;9.95;;;0.50;99.90;;;;;;4831127;29;20042;-96
2022/01/10 01:58:36;;;;;;;34.58;9.73;;;0.50;99.90;;;;;;4846066;29;20166;-96
2022/01/10 02:01:06;;;;;;;28.70;10.48;;;0.40;99.90;;;;;;4829040;29;20096;-96
2022/01/10 02:03:37;;;;;;;31.67;11.07;;;0.40;99.90;;;;;;4828834;29;20052;-95
2022/01/10 02:06:03;;;;;;;355.88;18.52;;;0.30;99.90;;;;;;4833424;29;20038;-95
2022/01/10 02:08:28;;;;;;;25.42;10.02;;;0.30;99.90;;;;;;4842926;29;20047;-96
2022/01/10 02:10:54;;;;;;;23.98;8.63;;;0.30;99.90;;;;;;4828161;29;20415;-96
2022/01/10 02:13:20;;;;;;;51.80;10.10;;;0.30;99.90;;;;;;4843731;29;20045;-96
2022/01/10 02:15:56;;;;;;;42.45;9.25;;;0.30;99.90;;;;;;4843572;29;20045;-95
2022/01/10 02:18:22;;;;;;;44.78;8.27;;;0.30;99.90;;;;;;4841420;29;20075;-96
2022/01/10 02:20:47;;;;;;;31.45;8.75;;;0.20;99.90;;;;;;4843491;29;20053;-95
2022/01/10 02:23:14;;;;;;;68.72;8.50;;;0.20;99.90;;;;;;4852514;29;20049;-96
2022/01/10 02:25:41;;;;;;;27.90;8.68;;;0.20;99.90;;;;;;4842986;29;20049;-95
2022/01/10 02:28:07;;;;;;;52.63;9.43;;;0.10;99.90;;;;;;4843036;29;20042;-96
2022/01/10 02:30:32;;;;;;;66.28;9.93;;;0.10;99.90;;;;;;4842867;29;20045;-96
2022/01/10 02:33:00;;;;;;;22.60;7.63;;;0.10;99.90;;;;;;4827665;29;20616;-95
2022/01/10 02:35:30;;;;;;;16.73;8.10;;;0.00;99.90;;;;;;4842715;29;20134;-96
2022/01/10 02:37:56;;;;;;;20.70;10.23;;;0.00;99.90;;;;;;4842834;29;20080;-95
2022/01/10 02:40:25;;;;;;;25.88;11.00;;;0.00;99.90;;;;;;4842542;29;20480;-96
2022/01/10 02:42:51;;;;;;;32.70;12.90;;;0.00;99.90;;;;;;4833077;29;20100;-96
2022/01/10 02:45:17;;;;;;;29.45;13.32;;;0.00;99.90;;;;;;4851485;29;20060;-95
2022/01/10 02:47:43;;;;;;;28.23;11.70;;;0.00;99.90;;;;;;4842379;29;20140;-96
2022/01/10 02:50:11;;;;;;;25.00;12.38;;;0.00;99.90;;;;;;4842572;29;20037;-94
2022/01/10 02:52:37;;;;;;;35.78;13.48;;;0.00;99.90;;;;;;4842165;29;20136;-95
2022/01/10 02:55:04;;;;;;;33.10;13.45;;;0.00;99.90;;;;;;4837966;29;20173;-95
2022/01/10 02:57:31;;;;;;;44.22;16.35;;;0.10;99.90;;;;;;4824050;29;20208;-95
2022/01/10 02:59:58;;;;;;;40.78;15.70;;;0.10;99.90;;;;;;4839857;29;20416;-96
2022/01/10 03:02:28;;;;;;;35.38;14.88;;;0.10;99.90;;;;;;4842412;29;20056;-96
2022/01/10 03:04:54;;;;;;;35.92;15.73;;;0.10;99.90;;;;;;4841033;29;20053;-96
2022/01/10 03:07:23;;;;;;;38.00;14.90;;;0.10;99.90;;;;;;4842080;29;20101;-95
2022/01/10 03:09:50;;;;;;;30.95;14.43;;;0.20;99.90;;;;;;4841603;29;20045;-96
2022/01/10 03:12:15;;;;;;;43.65;16.67;;;0.20;99.90;;;;;;4842032;29;20049;-95
2022/01/10 03:14:42;;;;;;;47.97;17.25;;;0.20;99.90;;;;;;4841371;29;20054;-95
2022/01/10 03:17:09;;;;;;;34.05;15.75;;;0.20;99.90;;;;;;4827090;29;20037;-96
2022/01/10 03:19:35;;;;;;;34.88;16.05;;;0.20;99.90;;;;;;4843093;29;20109;-94
2022/01/10 03:22:00;;;;;;;41.50;17.55;;;0.10;99.90;;;;;;4826072;29;20503;-95
2022/01/10 03:24:26;;;;;;;48.78;20.23;;;0.10;99.90;;;;;;4841435;29;20053;-95
2022/01/10 03:26:51;;;;;;;53.70;21.08;;;0.10;99.90;;;;;;4841652;29;20769;-96
2022/01/10 03:29:18;;;;;;;57.78;21.30;;;0.10;99.90;;;;;;4841762;29;20101;-96
2022/01/10 03:31:44;;;;;;;48.88;19.02;;;0.10;99.90;;;;;;4841067;29;20057;-94
2022/01/10 03:34:12;;;;;;;50.05;20.15;;;0.00;99.90;;;;;;4826337;29;20052;-94
2022/01/10 03:36:42;;;;;;;41.03;21.02;;;0.00;99.90;;;;;;4839481;29;20105;-95
2022/01/10 03:39:09;;;;;;;55.08;21.75;;;0.00;99.90;;;;;;4825916;29;20136;-94
2022/01/10 03:41:36;;;;;;;56.72;21.20;;;0.00;99.90;;;;;;4841678;29;20068;-95
2022/01/10 03:44:02;;;;;;;55.72;21.48;;;-0.10;99.90;;;;;;4826119;29;20052;-94
2022/01/10 03:46:28;;;;;;;49.03;20.20;;;-0.10;99.90;;;;;;4841323;29;20057;-94
2022/01/10 03:48:54;;;;;;;345.60;29.42;;;-0.10;99.90;;;;;;4842616;29;20109;-94
2022/01/10 03:51:20;;;;;;;64.57;24.27;;;-0.10;99.90;;;;;;4841401;29;20053;-94
2022/01/10 03:53:46;;;;;;;74.70;23.95;;;-0.10;99.90;;;;;;4826179;29;20741;-95
2022/01/10 03:56:11;;;;;;;60.33;22.85;;;-0.10;99.90;;;;;;4841368;29;20545;-93
2022/01/10 03:58:37;;;;;;;52.30;20.50;;;-0.10;99.90;;;;;;4841278;29;20088;-95
2022/01/10 04:01:04;;;;;;;43.03;18.92;;;-0.10;99.90;;;;;;4840495;29;20042;-95
2022/01/10 04:03:29;;;;;;;39.28;18.50;;;-0.20;99.90;;;;;;4825301;29;20128;-95
2022/01/10 04:05:58;;;;;;;40.83;18.98;;;-0.20;99.90;;;;;;4841147;29;20164;-95
2022/01/10 04:08:24;;;;;;;39.80;17.88;;;-0.20;99.90;;;;;;4825472;29;20128;-95
2022/01/10 04:10:50;;;;;;;36.22;17.65;;;-0.30;99.90;;;;;;4825747;29;20572;-94
2022/01/10 04:13:16;;;;;;;41.60;18.73;;;-0.30;99.90;;;;;;4840991;29;20049;-94
2022/01/10 04:15:41;;;;;;;43.85;18.13;;;-0.40;99.90;;;;;;4838495;29;20532;-94
2022/01/10 04:18:07;;;;;;;36.35;18.58;;;-0.40;99.90;;;;;;4852397;29;20117;-95
2022/01/10 04:20:33;;;;;;;41.03;18.05;;;-0.40;99.90;;;;;;4840798;29;20053;-94
2022/01/10 04:22:59;;;;;;;35.85;17.77;;;-0.40;99.90;;;;;;4825110;29;20041;-94
2022/01/10 04:25:25;;;;;;;46.38;19.35;;;-0.50;99.90;;;;;;4824958;29;20073;-94
2022/01/10 04:27:50;;;;;;;38.53;16.85;;;-0.50;99.90;;;;;;4840181;29;20136;-93
2022/01/10 04:30:16;;;;;;;35.10;16.70;;;-0.50;99.90;;;;;;4840621;29;20072;-94
2022/01/10 04:32:43;;;;;;;42.35;18.85;;;-0.50;99.90;;;;;;4840843;29;20046;-94
2022/01/10 04:35:10;;;;;;;49.20;19.92;;;-0.60;99.90;;;;;;4840086;29;20055;-93
2022/01/10 04:37:36;;;;;;;47.55;19.98;;;-0.60;99.90;;;;;;4825408;29;20041;-95
2022/01/10 04:40:02;;;;;;;41.22;17.85;;;-0.60;99.90;;;;;;4828701;29;20056;-94
2022/01/10 04:42:28;;;;;;;45.03;20.25;;;-0.60;99.90;;;;;;4856235;29;20045;-94
2022/01/10 04:44:53;;;;;;;46.83;19.90;;;-0.60;99.90;;;;;;4840034;29;20125;-94
2022/01/10 04:47:19;;;;;;;37.08;18.13;;;-0.70;99.90;;;;;;4840508;29;20049;-95
2022/01/10 04:52:25;;;;;;;37.80;19.40;;;-0.70;99.90;;;;;;4840742;29;20075;-94
2022/01/10 04:54:51;;;;;;;36.58;19.60;;;-0.70;99.90;;;;;;4825902;29;20571;-95
2022/01/10 04:57:17;;;;;;;46.95;18.70;;;-0.80;99.90;;;;;;4840346;29;20073;-94
2022/01/10 04:59:42;;;;;;;39.70;19.10;;;-0.80;99.90;;;;;;4824914;29;20076;-94
2022/01/10 05:02:10;;;;;;;66.47;21.77;;;-0.80;99.90;;;;;;4840263;29;20045;-93
2022/01/10 05:04:35;;;;;;;45.35;21.35;;;-0.90;99.90;;;;;;4825044;29;20408;-94
2022/01/10 05:07:01;;;;;;;54.97;18.13;;;-0.90;99.90;;;;;;4840300;29;20057;-94
2022/01/10 05:09:27;;;;;;;452.27;32.00;;;-0.90;99.90;;;;;;4825537;29;20048;-93
2022/01/10 05:11:52;;;;;;;279.02;25.20;;;-1.00;99.90;;;;;;4839918;29;20045;-93
2022/01/10 05:14:18;;;;;;;364.83;29.27;;;-0.90;99.90;;;;;;4841250;29;20050;-93
2022/01/10 05:16:44;;;;;;;107.10;19.85;;;-0.90;99.90;;;;;;4838193;29;20049;-93
2022/01/10 05:19:10;;;;;;;89.20;20.63;;;-1.00;99.90;;;;;;4829968;29;20045;-93
2022/01/10 05:21:36;;;;;;;77.93;18.63;;;-1.00;99.90;;;;;;4824966;29;20049;-94
2022/01/10 05:24:02;;;;;;;74.25;19.23;;;-1.00;99.90;;;;;;4827414;29;20048;-92
2022/01/10 05:26:27;;;;;;;31.85;16.92;;;-1.00;99.90;;;;;;4844878;29;20041;-93
2022/01/10 05:28:55;;;;;;;38.72;18.30;;;-1.00;99.90;;;;;;4842650;29;20258;-93
2022/01/10 05:31:21;;;;;;;54.65;17.85;;;-1.10;99.90;;;;;;4838856;29;20484;-93
2022/01/10 05:33:47;;;;;;;86.63;17.88;;;-1.10;99.90;;;;;;4828149;29;20071;-93
2022/01/10 05:36:13;;;;;;;307.13;25.13;;;-1.10;99.90;;;;;;4842933;29;20682;-92
2022/01/10 05:38:38;;;;;;;488.88;35.25;;;-1.10;99.90;;;;;;4843425;29;20132;-92
2022/01/10 05:41:04;;;;;;;463.17;31.77;;;-1.10;99.90;;;;;;4843714;29;20045;-93
2022/01/10 05:43:29;;;;;;;56.90;16.25;;;-1.10;99.90;;;;;;4843290;29;20047;-92
2022/01/10 05:45:56;;;;;;;47.85;17.55;;;-1.00;99.90;;;;;;4826959;29;20497;-93
2022/01/10 05:48:26;;;;;;;160.07;22.80;;;-1.20;99.90;;;;;;4828201;29;20050;-92
2022/01/10 05:50:52;;;;;;;56.40;20.05;;;-1.20;99.90;;;;;;4827565;29;20045;-92
2022/01/10 05:53:18;;;;;;;42.53;19.58;;;-1.20;99.90;;;;;;4840769;29;20060;-93
2022/01/10 05:55:45;;;;;;;60.17;25.17;;;-1.20;99.90;;;;;;4825383;29;20194;-94
2022/01/10 05:58:11;;;;;;;74.82;27.65;;;-1.20;99.90;;;;;;4839674;29;20151;-93
2022/01/10 06:00:37;;;;;;;48.17;22.83;;;-1.10;99.90;;;;;;4826892;29;20049;-94
2022/01/10 06:03:03;;;;;;;51.85;21.30;;;-1.10;99.90;;;;;;4830359;29;20105;-94
2022/01/10 06:05:31;;;;;;;45.78;21.05;;;-1.10;99.90;;;;;;4840047;29;20125;-93
2022/01/10 06:07:59;;;;;;;48.60;22.35;;;-1.10;99.90;;;;;;4854955;29;20042;-93
2022/01/10 06:10:25;;;;;;;39.17;20.25;;;-1.10;99.90;;;;;;4858592;29;20049;-93
2022/01/10 06:12:50;;;;;;;41.97;19.45;;;-1.20;99.90;;;;;;4835709;29;20527;-94
2022/01/10 06:15:16;;;;;;;48.03;22.20;;;-1.20;99.90;;;;;;4836481;29;20562;-93
2022/01/10 06:17:41;;;;;;;56.10;24.55;;;-1.20;99.90;;;;;;4835223;29;20042;-94
2022/01/10 06:20:07;;;;;;;357.27;33.22;;;-1.20;99.90;;;;;;4841062;29;20045;-96
2022/01/10 06:22:33;;;;;;;131.48;23.17;;;-1.30;99.90;;;;;;4829881;29;20041;-95
2022/01/10 06:24:59;;;;;;;57.92;23.10;;;-1.30;99.90;;;;;;4841533;29;20094;-94
2022/01/10 06:27:25;;;;;;;348.15;36.20;;;-1.30;99.90;;;;;;4843877;29;20053;-95
2022/01/10 06:29:50;;;;;;;57.67;23.42;;;-1.30;99.90;;;;;;4840582;29;20426;-94
2022/01/10 06:32:16;;;;;;;54.55;23.15;;;-1.30;99.90;;;;;;4827821;29;20046;-96
2022/01/10 06:34:42;;;;;;;71.10;24.52;;;-1.30;99.90;;;;;;4839265;29;20114;-95
2022/01/10 06:37:08;;;;;;;43.63;21.90;;;-1.30;99.90;;;;;;4827101;29;20133;-95
2022/01/10 06:39:33;;;;;;;41.85;22.00;;;-1.30;99.90;;;;;;4839483;29;20098;-95
2022/01/10 06:41:59;;;;;;;45.92;23.33;;;-1.30;99.90;;;;;;4826893;29;20048;-95
2022/01/10 06:44:25;;;;;;;52.70;25.23;;;-1.30;99.90;;;;;;4825879;29;20476;-95
2022/01/10 06:46:51;;;;;;;45.22;23.17;;;-1.30;99.90;;;;;;4839276;29;20050;-95
2022/01/10 06:49:17;;;;;;;46.40;23.90;;;-1.30;99.90;;;;;;4841368;29;20389;-95
2022/01/10 06:51:43;;;;;;;47.38;22.00;;;-1.40;99.90;;;;;;4860808;29;20048;-95
2022/01/10 06:54:08;;;;;;;53.17;24.02;;;-1.30;99.90;;;;;;4860831;29;20055;-95
2022/01/10 06:56:34;;;;;;;49.53;23.42;;;-1.40;99.90;;;;;;4842619;29;20408;-95
2022/01/10 06:59:00;;;;;;;53.80;23.63;;;-1.30;99.90;;;;;;4826213;29;20049;-94
2022/01/10 07:01:26;;;;;;;49.38;23.63;;;-1.30;99.90;;;;;;4840652;29;20519;-95
2022/01/10 07:03:56;;;;;;;54.97;23.45;;;-1.40;99.90;;;;;;4858868;29;20065;-95
2022/01/10 07:06:21;;;;;;;59.58;23.98;;;-1.30;99.90;;;;;;4855300;29;20539;-95
2022/01/10 07:08:47;;;;;;;53.15;22.85;;;-1.30;99.90;;;;;;4841898;29;20132;-95
2022/01/10 07:11:12;;;;;;;45.50;23.20;;;-1.30;99.90;;;;;;4841590;29;20045;-94
2022/01/10 07:13:38;;;;;;;43.30;21.80;;;-1.40;99.90;;;;;;4840866;29;20512;-95
2022/01/10 07:16:04;;;;;;;40.75;20.98;;;-1.40;99.90;;;;;;4845869;29;20100;-96
2022/01/10 07:18:29;;;;;;;85.80;26.02;;;-1.40;99.90;;;;;;4853095;29;20117;-95
2022/01/10 07:20:55;;;;;;;38.60;21.08;;;-1.40;99.90;;;;;;4830921;29;20053;-94
2022/01/10 07:23:22;;;;;;;42.90;21.25;;;-1.40;99.90;;;;;;4842272;29;20050;-94
2022/01/10 07:25:52;;;;;;;41.42;22.17;;;-1.40;99.90;;;;;;4843093;29;20052;-95
2022/01/10 07:28:18;;;;;;;47.10;22.33;;;-1.40;99.90;;;;;;4841930;29;20073;-93
2022/01/10 07:30:44;;;;;;;45.22;21.65;;;-1.50;99.90;;;;;;4834915;29;20073;-93
2022/01/10 07:33:10;;;;;;;40.58;21.67;;;-1.50;99.90;;;;;;4846735;29;20054;-95
2022/01/10 07:35:36;;;;;;;67.20;24.25;;;-1.50;99.90;;;;;;4846022;29;20075;-95
2022/01/10 07:38:02;;;;;;;326.55;34.22;;;-1.60;99.90;;;;;;4842325;29;20084;-95
2022/01/10 07:40:27;;;;;;;488.17;37.40;;;-1.50;99.90;;;;;;4847477;29;20084;-92
2022/01/10 07:42:53;;;;;;;535.75;42.33;;;-1.50;99.90;;;;;;4848927;29;20041;-95
2022/01/10 07:45:19;;;;;;;398.98;39.85;;;-1.50;99.90;;;;;;4835211;29;20523;-91
2022/01/10 07:47:44;;;;;;;448.30;41.22;;;-1.50;99.90;;;;;;4840413;29;20045;-92
2022/01/10 07:50:11;;;;;;;520.25;40.45;;;-1.60;99.90;;;;;;4842816;29;20058;-94
2022/01/10 07:52:36;;;;;;;447.30;37.80;;;-1.60;99.90;;;;;;4846336;29;20041;-94
2022/01/10 07:55:03;;;;;;;495.00;43.83;;;-1.60;99.90;;;;;;4845641;29;20040;-94
2022/01/10 07:57:29;;;;;;;167.32;27.92;;;-1.60;99.90;;;;;;4823718;29;20093;-93
2022/01/10 07:59:54;;;;;;;163.98;30.33;;;-1.60;99.90;;;;;;4825348;29;20049;-92
2022/01/10 08:02:24;;;;;;;288.48;33.05;;;-1.60;99.90;;;;;;4840048;29;20045;-93
2022/01/10 08:04:49;;;;;;;399.95;40.80;;;-1.60;99.90;;;;;;4841439;29;20512;-92
2022/01/10 08:07:15;;;;;;;166.68;30.65;;;-1.60;99.90;;;;;;4844217;29;20052;-93
2022/01/10 08:09:41;;;;;;;183.88;30.75;;;-1.60;99.90;;;;;;4840599;29;20140;-92
2022/01/10 08:12:07;;;;;;;387.92;37.20;;;-1.60;99.90;;;;;;4840526;29;20039;-91
2022/01/10 08:14:33;;;;;;;126.97;29.92;;;-1.60;99.90;;;;;;4840664;29;20084;-92
2022/01/10 08:16:59;;;;;;;85.30;30.45;;;-1.60;99.90;;;;;;4840650;29;20037;-92
2022/01/10 08:19:27;;;;;;;145.32;30.65;;;-1.60;99.90;;;;;;4841121;29;20844;-92
2022/01/10 08:21:55;;;;;;;142.00;32.78;;;-1.60;99.90;;;;;;4840543;29;20037;-93
2022/01/10 08:24:24;;;;;;;265.98;34.53;;;-1.60;99.90;;;;;;4840464;29;20041;-92
2022/01/10 08:26:52;;;;;;;80.60;29.17;;;-1.50;99.90;;;;;;4839947;29;20048;-91
2022/01/10 08:29:17;;;;;;;83.03;30.80;;;-1.50;99.90;;;;;;4840100;29;20037;-91
2022/01/10 08:31:44;;;;;;;87.63;29.00;;;-1.50;99.90;;;;;;4840367;29;20172;-91
2022/01/10 08:34:10;;;;;;;86.53;30.30;;;-1.50;99.90;;;;;;4840456;29;20052;-92
2022/01/10 08:36:36;;;;;;;114.30;30.58;;;-1.50;99.90;;;;;;4840838;29;20124;-91
2022/01/10 08:39:05;;;;;;;74.82;28.00;;;-1.50;99.90;;;;;;4839970;29;20053;-92
2022/01/10 08:41:31;;;;;;;201.48;34.22;;;-1.50;99.90;;;;;;4840306;29;20085;-92
2022/01/10 08:43:57;;;;;;;123.97;32.90;;;-1.50;99.90;;;;;;4847948;29;20105;-92
2022/01/10 08:46:23;;;;;;;134.27;33.72;;;-1.50;99.90;;;;;;4840062;29;20133;-92
2022/01/10 08:48:50;;;;;;;87.03;30.05;;;-1.40;99.90;;;;;;4840378;29;20046;-91
2022/01/10 08:51:16;;;;;;;107.10;33.63;;;-1.40;99.90;;;;;;4854726;29;20481;-91
2022/01/10 08:53:42;;;;;;;86.40;32.08;;;-1.30;99.90;;;;;;4840187;29;20045;-91
2022/01/10 08:56:07;;;;;;;79.25;31.33;;;-1.30;99.90;;;;;;4840319;29;20042;-92
2022/01/10 08:58:33;;;;;;;73.88;32.05;;;-1.20;99.90;;;;;;4840234;29;20049;-91
2022/01/10 09:01:00;;;;;;;91.22;35.33;;;-1.10;99.90;;;;;;4839970;29;20052;-92
2022/01/10 09:03:26;;;;;;;91.88;35.50;;;-1.00;99.90;;;;;;4842015;29;20074;-92
2022/01/10 09:05:54;;;;;;;84.95;36.63;;;-0.90;99.90;;;;;;4836524;29;20049;-92
2022/01/10 09:08:20;;;;;;;110.78;39.40;;;-0.80;99.90;;;;;;4843765;29;20049;-92
2022/01/10 09:10:45;;;;;;;109.15;42.22;;;-0.60;99.90;;;;;;4847696;29;20532;-92
2022/01/10 09:13:11;;;;;;;134.38;45.13;;;-0.50;99.90;;;;;;4845821;29;20102;-92
2022/01/10 09:15:37;;;;;;;124.35;45.75;;;-0.20;99.90;;;;;;4844291;29;20045;-92
2022/01/10 09:18:04;;;;;;;160.32;51.08;;;0.00;99.90;;;;;;4843612;29;20049;-92
2022/01/10 09:20:29;;;;;;;155.00;52.03;;;0.20;99.90;;;;;;4843266;29;20095;-92
2022/01/10 09:22:55;;;;;;;158.82;51.60;;;0.30;99.90;;;;;;4846523;29;20512;-91
2022/01/10 09:25:22;;;;;;;138.73;50.20;;;0.30;99.90;;;;;;4843735;29;20092;-91
2022/01/10 09:27:48;;;;;;;114.35;44.20;;;0.40;99.90;;;;;;4843303;29;20134;-91
2022/01/10 09:30:14;;;;;;;114.40;46.10;;;0.30;99.90;;;;;;4843772;29;20250;-91
2022/01/10 09:32:40;;;;;;;114.50;47.85;;;0.30;99.90;;;;;;4843520;29;20045;-91
2022/01/10 09:35:06;;;;;;;111.50;45.80;;;0.30;99.90;;;;;;4843502;29;20050;-92
2022/01/10 09:37:32;;;;;;;111.35;46.30;;;0.20;99.90;;;;;;4840312;29;20046;-92
2022/01/10 09:39:57;;;;;;;129.82;49.75;;;0.30;99.90;;;;;;4851098;29;20054;-93
2022/01/10 09:42:23;;;;;;;129.40;53.55;;;0.30;99.90;;;;;;4843920;29;20051;-93
2022/01/10 09:44:49;;;;;;;120.72;51.25;;;0.60;99.90;;;;;;4850299;29;20084;-92
2022/01/10 09:47:15;;;;;;;122.43;50.97;;;0.50;99.90;;;;;;4843245;29;20488;-92
2022/01/10 09:49:40;;;;;;;132.88;55.22;;;0.60;99.90;;;;;;4843135;29;20049;-93
2022/01/10 09:52:06;;;;;;;152.07;58.55;;;0.70;99.90;;;;;;4843137;29;20089;-92
2022/01/10 09:54:33;;;;;;;153.25;58.38;;;0.90;99.90;;;;;;4842917;29;20500;-92
2022/01/10 09:56:59;;;;;;;134.18;56.78;;;1.10;99.90;;;;;;4835523;29;20049;-93
2022/01/10 09:59:25;;;;;;;135.40;59.17;;;1.20;99.90;;;;;;4842854;29;20581;-93
2022/01/10 10:01:52;;;;;;;192.00;66.22;;;1.30;99.90;;;;;;4842272;29;20056;-93
2022/01/10 10:04:19;;;;;;;164.88;67.93;;;1.50;99.90;;;;;;4842762;29;20551;-92
2022/01/10 10:06:46;;;;;;;141.32;61.92;;;1.70;99.90;;;;;;4842622;29;20053;-93
2022/01/10 10:09:11;;;;;;;127.43;58.75;;;1.80;99.90;;;;;;4847395;29;20049;-92
2022/01/10 10:11:49;;;;;;;133.77;58.45;;;1.80;99.90;;;;;;4837910;29;20046;-94
2022/01/10 10:14:17;;;;;;;129.93;57.72;;;1.90;99.90;;;;;;4842514;29;20045;-93
2022/01/10 10:16:49;;;;;;;148.57;65.85;;;2.00;99.90;;;;;;4843618;29;20041;-93
2022/01/10 10:19:27;;;;;;;127.25;57.60;;;2.20;99.90;;;;;;4843254;29;20512;-93
2022/01/10 10:21:55;;;;;;;105.95;52.67;;;2.40;99.90;;;;;;4842264;29;20052;-93
2022/01/10 10:24:22;;;;;;;95.35;49.47;;;2.40;99.90;;;;;;4842685;29;20056;-93
2022/01/10 10:26:48;;;;;;;91.65;49.15;;;2.30;99.90;;;;;;4840545;29;20153;-93
2022/01/10 10:29:17;;;;;;;99.20;51.67;;;2.40;99.90;;;;;;4847368;29;20057;-93
2022/01/10 10:31:54;;;;;;;103.45;50.22;;;2.50;99.90;;;;;;4834805;29;20045;-95
2022/01/10 10:34:21;;;;;;;96.20;47.55;;;2.60;99.90;;;;;;4838316;29;20057;-94
2022/01/10 10:37:03;;;;;;;92.22;49.25;;;2.70;99.90;;;;;;4845272;29;20137;-94
2022/01/10 10:39:30;;;;;;;92.03;46.67;;;2.70;99.90;;;;;;4846714;29;20489;-94
2022/01/10 10:41:59;;;;;;;97.00;46.88;;;2.80;99.90;;;;;;4843628;29;20049;-95
2022/01/10 10:44:26;;;;;;;86.55;45.65;;;2.80;99.90;;;;;;4843785;29;20076;-95
2022/01/10 10:46:51;;;;;;;83.93;44.03;;;2.90;99.90;;;;;;4841973;29;20061;-95
2022/01/10 10:49:20;;;;;;;88.80;44.15;;;2.80;99.90;;;;;;4842166;29;20253;-96
2022/01/10 10:51:50;;;;;;;85.00;44.00;;;2.80;99.90;;;;;;4826685;29;20060;-96
2022/01/10 10:54:17;;;;;;;92.47;46.30;;;2.80;99.90;;;;;;4842435;29;20085;-95
2022/01/10 10:56:43;;;;;;;84.90;45.70;;;2.90;99.90;;;;;;4826732;29;20061;-95
2022/01/10 10:59:11;;;;;;;92.32;46.13;;;2.90;99.90;;;;;;4827140;29;20531;-96
2022/01/10 11:01:37;;;;;;;101.90;48.97;;;2.80;99.90;;;;;;4841392;29;20052;-95
2022/01/10 11:04:04;;;;;;;95.57;46.90;;;2.90;99.90;;;;;;4826060;29;20077;-96
2022/01/10 11:06:34;;;;;;;95.57;47.45;;;3.00;99.90;;;;;;4839206;29;20046;-95
2022/01/10 11:09:03;;;;;;;87.97;44.45;;;3.00;99.90;;;;;;4841012;29;20450;-95
2022/01/10 11:11:29;;;;;;;88.85;46.28;;;3.20;99.90;;;;;;4825986;29;20046;-96
2022/01/10 11:13:56;;;;;;;93.57;45.97;;;3.20;99.90;;;;;;4826469;29;20089;-95
2022/01/10 11:16:23;;;;;;;93.07;48.00;;;3.20;99.90;;;;;;4844850;29;20065;-95
2022/01/10 11:18:49;;;;;;;102.15;49.38;;;3.30;99.90;;;;;;4840572;29;20570;-96
2022/01/10 11:21:16;;;;;;;92.40;47.38;;;3.40;99.90;;;;;;4840726;29;20046;-95
2022/01/10 11:23:44;;;;;;;87.40;48.08;;;3.50;99.90;;;;;;4825690;29;20412;-96
2022/01/10 11:26:11;;;;;;;97.88;48.05;;;3.60;99.90;;;;;;4840228;29;20045;-96
2022/01/10 11:28:52;;;;;;;96.18;46.95;;;3.80;99.90;;;;;;4822647;29;20238;-95
2022/01/10 11:31:24;;;;;;;99.43;50.13;;;4.00;99.90;;;;;;4836651;29;20129;-94
2022/01/10 11:33:51;;;;;;;90.32;46.92;;;4.10;99.90;;;;;;4834359;29;20516;-93
2022/01/10 11:36:21;;;;;;;91.43;48.17;;;4.50;99.90;;;;;;4831484;29;20053;-96
2022/01/10 11:38:50;;;;;;;79.65;41.58;;;4.70;99.90;;;;;;4839103;29;20055;-94
2022/01/10 11:41:17;;;;;;;74.32;39.80;;;4.90;99.90;;;;;;4824448;29;20404;-94
2022/01/10 11:44:14;;;;;;;73.28;39.47;;;5.00;99.90;;;;;;4822629;29;20054;-93
2022/01/10 11:46:48;;;;;;;70.10;38.50;;;5.10;99.90;;;;;;4838568;29;20053;-95
2022/01/10 11:49:14;;;;;;;75.53;38.55;;;4.90;99.90;;;;;;4839109;29;20053;-94
2022/01/10 11:51:50;;;;;;;68.90;38.35;;;4.80;99.90;;;;;;4840105;29;20051;-93
2022/01/10 11:54:28;;;;;;;78.43;38.75;;;4.70;99.90;;;;;;4842191;29;20057;-95
2022/01/10 11:56:54;;;;;;;68.05;39.72;;;4.60;99.90;;;;;;4839859;29;20057;-96
2022/01/10 11:59:37;;;;;;;73.95;40.08;;;4.60;99.90;;;;;;4839688;29;20046;-92
2022/01/10 12:02:04;;;;;;;76.72;40.78;;;4.60;99.90;;;;;;4855968;29;20049;-91
2022/01/10 12:04:35;;;;;;;72.53;41.83;;;4.50;99.90;;;;;;4829444;29;20053;-92
2022/01/10 12:07:03;;;;;;;87.13;41.55;;;4.50;99.90;;;;;;4825683;29;20132;-94
2022/01/10 12:09:29;;;;;;;79.45;42.25;;;4.50;99.90;;;;;;4826034;29;20078;-94
2022/01/10 12:11:56;;;;;;;76.30;42.22;;;4.50;99.90;;;;;;4840650;29;20045;-93
2022/01/10 12:14:23;;;;;;;91.65;43.20;;;4.50;99.90;;;;;;4853979;29;20050;-95
2022/01/10 12:16:49;;;;;;;77.60;42.03;;;4.50;99.90;;;;;;4825523;29;20512;-94
2022/01/10 12:19:16;;;;;;;77.18;43.78;;;4.50;99.90;;;;;;4840471;29;20132;-92
2022/01/10 12:21:41;;;;;;;80.07;41.72;;;4.50;99.90;;;;;;4840459;29;20045;-93
2022/01/10 12:24:08;;;;;;;83.88;43.22;;;4.50;99.90;;;;;;4840768;29;20850;-94
2022/01/10 12:26:34;;;;;;;85.60;45.17;;;4.50;99.90;;;;;;4840655;29;20041;-95
2022/01/10 12:29:01;;;;;;;86.57;46.78;;;4.50;99.90;;;;;;4846450;29;20041;-93
2022/01/10 12:31:29;;;;;;;86.40;43.97;;;4.60;99.90;;;;;;4840641;29;20041;-93
2022/01/10 12:34:11;;;;;;;94.03;45.17;;;4.60;99.90;;;;;;4845469;29;20674;-95
2022/01/10 12:36:38;;;;;;;86.38;45.78;;;4.60;99.90;;;;;;4845051;29;20045;-94
2022/01/10 12:39:06;;;;;;;82.22;44.55;;;4.70;99.90;;;;;;4839922;29;20050;-95
2022/01/10 12:41:32;;;;;;;85.22;45.63;;;4.80;99.90;;;;;;4840471;29;20125;-96
2022/01/10 12:43:58;;;;;;;76.63;43.13;;;4.80;99.90;;;;;;4838432;29;20424;-94
2022/01/10 12:46:27;;;;;;;88.88;46.28;;;4.80;99.90;;;;;;4840505;29;20064;-94
2022/01/10 12:48:53;;;;;;;80.80;45.83;;;4.70;99.90;;;;;;4825140;29;20046;-94